createdAt,value
2017-12-23T00:01:42.616Z,29.80
2017-12-23T00:04:11.347Z,27.83
2017-12-23T00:06:40.792Z,27.17
2017-12-23T00:09:09.722Z,26.77
2017-12-23T00:11:39.085Z,25.87
2017-12-23T00:14:07.757Z,26.30
2017-12-23T00:16:37.662Z,28.03
2017-12-23T00:19:06.348Z,32.40
2017-12-23T00:21:35.133Z,35.47
2017-12-23T00:24:03.819Z,31.77
2017-12-23T00:26:32.508Z,30.33
2017-12-23T00:29:01.101Z,27.87
2017-12-23T00:31:29.837Z,28.70
2017-12-23T00:33:58.567Z,26.37
2017-12-23T00:36:27.200Z,25.93
2017-12-23T00:38:56.572Z,26.40
2017-12-23T00:41:25.244Z,25.97
2017-12-23T00:43:53.835Z,27.80
2017-12-23T00:46:22.719Z,28.60
2017-12-23T00:48:51.416Z,27.30
2017-12-23T00:51:20.085Z,26.13
2017-12-23T00:53:48.832Z,26.77
2017-12-23T00:56:18.288Z,26.20
2017-12-23T00:58:46.975Z,26.73
2017-12-23T01:01:16.178Z,27.83
2017-12-23T01:03:44.866Z,27.80
2017-12-23T01:06:13.453Z,28.13
2017-12-23T01:08:42.239Z,32.57
2017-12-23T01:11:10.864Z,49.07
2017-12-23T01:13:40.283Z,56.43
2017-12-23T01:16:08.976Z,51.63
2017-12-23T01:18:37.699Z,37.17
2017-12-23T01:21:06.343Z,38.30
2017-12-23T01:23:35.078Z,28.87
2017-12-23T01:26:03.726Z,25.90
2017-12-23T01:28:32.448Z,25.33
2017-12-23T01:31:01.613Z,25.20
2017-12-23T01:33:30.281Z,23.93
2017-12-23T01:35:59.600Z,23.87
2017-12-23T01:38:28.466Z,36.07
2017-12-23T01:40:57.888Z,66.23
2017-12-23T01:43:27.331Z,41.73
2017-12-23T01:45:58.476Z,31.93
2017-12-23T01:48:34.844Z,29.83
2017-12-23T01:51:03.530Z,26.87
2017-12-23T01:53:32.216Z,26.17
2017-12-23T01:56:00.870Z,25.50
2017-12-23T01:58:29.863Z,27.63
2017-12-23T02:00:58.582Z,26.30
2017-12-23T02:03:27.224Z,25.50
2017-12-23T02:05:55.965Z,26.50
2017-12-23T02:08:24.585Z,25.03
2017-12-23T02:10:54.051Z,25.53
2017-12-23T02:13:22.934Z,24.73
2017-12-23T02:15:51.590Z,25.10
2017-12-23T02:18:20.208Z,26.33
2017-12-23T02:20:49.817Z,23.73
2017-12-23T02:23:18.388Z,25.10
2017-12-23T02:25:47.083Z,25.10
2017-12-23T02:28:15.874Z,24.40
2017-12-23T02:30:44.561Z,23.50
2017-12-23T02:33:13.142Z,23.43
2017-12-23T02:35:41.857Z,23.10
2017-12-23T02:38:10.409Z,24.80
2017-12-23T02:40:39.096Z,23.30
2017-12-23T02:43:08.259Z,22.03
2017-12-23T02:45:36.984Z,22.57
2017-12-23T02:48:05.531Z,22.57
2017-12-23T02:50:34.256Z,22.43
2017-12-23T02:53:02.927Z,21.90
2017-12-23T02:55:31.570Z,22.43
2017-12-23T02:58:01.591Z,21.10
2017-12-23T03:00:31.042Z,25.57
2017-12-23T03:02:59.677Z,23.00
2017-12-23T03:05:29.335Z,24.53
2017-12-23T03:07:58.022Z,25.33
2017-12-23T03:10:26.608Z,25.67
2017-12-23T03:12:55.392Z,24.63
2017-12-23T03:15:23.980Z,23.03
2017-12-23T03:17:52.682Z,23.67
2017-12-23T03:20:22.149Z,26.57
2017-12-23T03:22:50.714Z,24.70
2017-12-23T03:25:19.363Z,28.83
2017-12-23T03:27:48.250Z,26.67
2017-12-23T03:30:16.968Z,39.83
2017-12-23T03:32:45.609Z,40.27
2017-12-23T03:35:15.074Z,38.50
2017-12-23T03:37:43.695Z,37.77
2017-12-23T03:40:13.109Z,35.27
2017-12-23T03:42:42.564Z,27.87
2017-12-23T03:45:11.245Z,25.90
2017-12-23T03:47:39.888Z,23.73
2017-12-23T03:50:08.681Z,22.53
2017-12-23T03:52:37.400Z,22.97
2017-12-23T03:55:05.991Z,21.70
2017-12-23T03:57:34.681Z,22.00
2017-12-23T04:00:03.356Z,23.57
2017-12-23T04:02:32.042Z,24.97
2017-12-23T04:05:00.728Z,24.13
2017-12-23T04:07:29.399Z,29.27
2017-12-23T04:09:58.099Z,27.43
2017-12-23T04:12:26.695Z,27.23
2017-12-23T04:14:55.426Z,41.20
2017-12-23T04:17:24.154Z,44.90
2017-12-23T04:19:52.885Z,30.77
2017-12-23T04:22:22.346Z,28.20
2017-12-23T04:24:51.016Z,31.23
2017-12-23T04:27:20.786Z,31.77
2017-12-23T04:29:50.245Z,33.87
2017-12-23T04:32:18.820Z,30.17
2017-12-23T04:34:47.610Z,27.77
2017-12-23T04:37:16.258Z,26.37
2017-12-23T04:39:44.877Z,33.10
2017-12-23T04:42:13.609Z,29.67
2017-12-23T04:44:43.070Z,28.17
2017-12-23T04:47:11.703Z,24.87
2017-12-23T04:49:41.439Z,26.17
2017-12-23T04:52:10.146Z,34.13
2017-12-23T04:54:38.832Z,33.00
2017-12-23T04:57:07.823Z,29.80
2017-12-23T04:59:36.457Z,38.33
2017-12-23T05:02:05.920Z,58.73
2017-12-23T05:04:34.704Z,42.60
2017-12-23T05:07:03.290Z,29.53
2017-12-23T05:09:31.863Z,27.13
2017-12-23T05:12:00.564Z,26.17
2017-12-23T05:14:29.235Z,23.47
2017-12-23T05:16:57.922Z,41.17
2017-12-23T05:19:27.123Z,47.53
2017-12-23T05:21:55.765Z,41.30
2017-12-23T05:24:24.496Z,37.93
2017-12-23T05:26:53.195Z,49.47
2017-12-23T05:29:21.912Z,40.77
2017-12-23T05:31:51.372Z,73.17
2017-12-23T05:34:20.092Z,52.63
2017-12-23T05:36:49.556Z,39.57
2017-12-23T05:39:18.207Z,45.93
2017-12-23T05:41:46.927Z,46.07
2017-12-23T05:44:15.567Z,39.13
2017-12-23T05:46:44.258Z,35.93
2017-12-23T05:49:12.984Z,32.00
2017-12-23T05:51:41.618Z,64.33
2017-12-23T05:54:11.079Z,74.90
2017-12-23T05:56:39.755Z,40.07
2017-12-23T05:59:08.450Z,59.00
2017-12-23T06:01:37.028Z,37.13
2017-12-23T06:04:05.713Z,26.20
2017-12-23T06:06:34.398Z,41.53
2017-12-23T06:09:03.085Z,53.03
2017-12-23T06:11:32.078Z,34.70
2017-12-23T06:14:00.765Z,28.97
2017-12-23T06:16:29.352Z,27.23
2017-12-23T06:18:58.285Z,27.97
2017-12-23T06:21:27.702Z,35.67
2017-12-23T06:23:56.426Z,35.63
2017-12-23T06:26:25.158Z,39.77
2017-12-23T06:28:54.624Z,36.77
2017-12-23T06:31:23.164Z,35.80
2017-12-23T06:33:52.667Z,39.90
2017-12-23T06:36:21.392Z,42.43
2017-12-23T06:38:50.026Z,48.13
2017-12-23T06:41:19.544Z,48.90
2017-12-23T06:43:48.275Z,54.40
2017-12-23T06:46:16.962Z,52.67
2017-12-23T06:48:45.953Z,55.03
2017-12-23T06:51:14.534Z,56.23
2017-12-23T06:53:44.127Z,53.63
2017-12-23T06:56:13.119Z,45.67
2017-12-23T06:58:41.716Z,36.60
2017-12-23T07:01:10.661Z,35.70
2017-12-23T07:03:40.122Z,37.87
2017-12-23T07:06:08.805Z,39.77
2017-12-23T07:08:37.584Z,25.53
2017-12-23T07:11:06.231Z,24.43
2017-12-23T07:13:34.963Z,49.57
2017-12-23T07:16:04.003Z,41.90
2017-12-23T07:18:33.464Z,44.30
2017-12-23T07:21:02.041Z,85.47
2017-12-23T07:23:31.034Z,35.13
2017-12-23T07:25:59.581Z,35.57
2017-12-23T07:28:28.255Z,35.70
2017-12-23T07:30:58.112Z,31.50
2017-12-23T07:33:26.808Z,28.17
2017-12-23T07:35:55.494Z,32.30
2017-12-23T07:38:24.174Z,29.77
2017-12-23T07:40:52.867Z,23.73
2017-12-23T07:43:21.553Z,19.87
2017-12-23T07:45:50.279Z,39.20
2017-12-23T07:48:19.736Z,44.00
2017-12-23T07:50:48.342Z,32.27
2017-12-23T07:53:17.268Z,27.57
2017-12-23T07:55:46.716Z,24.00
2017-12-23T07:58:15.486Z,36.07
2017-12-23T08:00:44.237Z,29.70
2017-12-23T08:03:13.698Z,28.43
2017-12-23T08:05:42.349Z,32.07
2017-12-23T08:08:11.277Z,30.10
2017-12-23T08:10:39.963Z,26.40
2017-12-23T08:13:08.877Z,23.40
2017-12-23T08:15:37.838Z,21.87
2017-12-23T08:18:06.484Z,19.20
2017-12-23T08:20:35.894Z,19.80
2017-12-23T08:23:05.641Z,20.27
2017-12-23T08:25:34.227Z,29.93
2017-12-23T08:28:02.917Z,21.30
2017-12-23T08:30:31.699Z,19.47
2017-12-23T08:33:00.441Z,25.03
2017-12-23T08:35:29.894Z,27.97
2017-12-23T08:37:58.678Z,24.63
2017-12-23T08:40:27.322Z,30.50
2017-12-23T08:42:56.051Z,22.57
2017-12-23T08:45:25.007Z,24.00
2017-12-23T08:47:53.549Z,23.40
2017-12-23T08:50:22.216Z,23.57
2017-12-23T08:52:51.061Z,22.20
2017-12-23T08:55:19.795Z,36.17
2017-12-23T08:57:48.421Z,35.60
2017-12-23T09:00:18.081Z,39.90
2017-12-23T09:02:46.766Z,24.27
2017-12-23T09:05:15.459Z,26.27
2017-12-23T09:07:44.337Z,26.70
2017-12-23T09:10:13.033Z,22.07
2017-12-23T09:12:41.718Z,20.77
2017-12-23T09:15:10.405Z,20.03
2017-12-23T09:17:38.990Z,17.30
2017-12-23T09:20:07.628Z,18.17
2017-12-23T09:22:38.402Z,14.80
2017-12-23T09:25:07.088Z,16.17
2017-12-23T09:27:35.774Z,15.57
2017-12-23T09:30:04.668Z,14.50
2017-12-23T09:32:33.295Z,14.50
2017-12-23T09:35:02.753Z,15.47
2017-12-23T09:37:31.705Z,17.13
2017-12-23T09:40:00.398Z,19.47
2017-12-23T09:42:29.019Z,22.90
2017-12-23T09:44:57.703Z,19.03
2017-12-23T09:47:26.391Z,14.17
2017-12-23T09:49:55.079Z,13.53
2017-12-23T09:52:23.884Z,16.27
2017-12-23T09:54:52.545Z,16.00
2017-12-23T09:57:21.539Z,12.97
2017-12-23T09:59:50.490Z,14.40
2017-12-23T10:02:19.133Z,15.13
2017-12-23T10:04:47.902Z,12.67
2017-12-23T10:07:16.636Z,11.17
2017-12-23T10:09:46.098Z,12.97
2017-12-23T10:12:14.644Z,14.53
2017-12-23T10:14:43.318Z,18.40
2017-12-23T10:17:12.762Z,18.33
2017-12-23T10:19:41.455Z,14.60
2017-12-23T10:22:10.448Z,9.60
2017-12-23T10:24:39.133Z,10.63
2017-12-23T10:27:07.820Z,10.73
2017-12-23T10:29:36.649Z,9.87
2017-12-23T10:32:06.112Z,9.30
2017-12-23T10:34:34.798Z,9.27
2017-12-23T10:37:03.675Z,9.77
2017-12-23T10:39:32.220Z,19.00
2017-12-23T10:42:01.639Z,12.90
2017-12-23T10:44:30.509Z,10.73
2017-12-23T10:46:59.971Z,11.23
2017-12-23T10:49:28.641Z,10.40
2017-12-23T10:51:57.336Z,11.73
2017-12-23T10:54:26.030Z,12.13
2017-12-23T10:56:54.645Z,11.33
2017-12-23T10:59:23.288Z,10.03
2017-12-23T11:01:51.976Z,9.77
2017-12-23T11:04:20.561Z,7.60
2017-12-23T11:06:49.555Z,10.00
2017-12-23T11:09:18.176Z,7.30
2017-12-23T11:11:47.604Z,7.70
2017-12-23T11:14:16.537Z,5.23
2017-12-23T11:16:45.164Z,6.73
2017-12-23T11:19:14.619Z,6.77
2017-12-23T11:21:43.414Z,8.97
2017-12-23T11:24:12.912Z,9.70
2017-12-23T11:26:41.597Z,10.20
2017-12-23T11:29:10.688Z,10.23
2017-12-23T11:31:39.386Z,11.03
2017-12-23T11:34:07.961Z,8.80
2017-12-23T11:36:36.757Z,8.97
2017-12-23T11:39:05.451Z,7.90
2017-12-23T11:41:34.130Z,9.27
2017-12-23T11:44:02.962Z,11.57
2017-12-23T11:46:32.421Z,9.27
2017-12-23T11:49:01.041Z,7.37
2017-12-23T11:51:29.792Z,10.30
2017-12-23T11:53:58.478Z,9.30
2017-12-23T11:56:27.053Z,9.30
2017-12-23T11:58:56.048Z,9.60
2017-12-23T12:01:25.413Z,10.10
2017-12-23T12:03:54.001Z,8.43
2017-12-23T12:06:23.044Z,8.13
2017-12-23T12:08:52.503Z,9.63
2017-12-23T12:11:21.188Z,9.40
2017-12-23T12:13:50.072Z,10.90
2017-12-23T12:16:18.757Z,12.37
2017-12-23T12:18:47.443Z,12.87
2017-12-23T12:21:16.238Z,10.33
2017-12-23T12:23:44.925Z,11.00
2017-12-23T12:26:13.559Z,12.93
2017-12-23T12:28:43.053Z,12.43
2017-12-23T12:31:12.408Z,10.70
2017-12-23T12:33:40.994Z,8.37
2017-12-23T12:36:09.730Z,8.60
2017-12-23T12:38:39.190Z,9.97
2017-12-23T12:41:07.877Z,9.53
2017-12-23T12:43:36.909Z,9.43
2017-12-23T12:46:06.368Z,9.17
2017-12-23T12:48:34.954Z,6.97
2017-12-23T12:51:03.688Z,6.67
2017-12-23T12:53:33.149Z,5.60
2017-12-23T12:56:01.723Z,7.80
2017-12-23T12:58:30.716Z,10.10
2017-12-23T13:00:59.403Z,13.10
2017-12-23T13:03:28.086Z,15.57
2017-12-23T13:05:56.943Z,26.50
2017-12-23T13:08:25.666Z,27.43
2017-12-23T13:10:54.304Z,26.30
2017-12-23T13:13:23.794Z,18.33
2017-12-23T13:15:53.259Z,15.80
2017-12-23T13:18:21.836Z,19.87
2017-12-23T13:20:50.624Z,20.97
2017-12-23T13:23:19.315Z,16.77
2017-12-23T13:25:47.860Z,12.70
2017-12-23T13:28:16.752Z,16.93
2017-12-23T13:30:45.420Z,16.47
2017-12-23T13:33:14.882Z,14.33
2017-12-23T13:35:43.730Z,31.40
2017-12-23T13:38:12.398Z,49.80
2017-12-23T13:40:41.860Z,41.97
2017-12-23T13:43:10.646Z,74.20
2017-12-23T13:45:39.331Z,43.13
2017-12-23T13:48:07.968Z,81.37
2017-12-23T13:50:37.416Z,248.40
2017-12-23T13:53:06.003Z,88.67
2017-12-23T13:55:34.646Z,171.20
2017-12-23T13:58:03.440Z,240.83
2017-12-23T14:00:32.107Z,77.60
2017-12-23T14:03:01.568Z,169.73
2017-12-23T14:05:30.353Z,37.00
2017-12-23T14:07:59.038Z,90.37
2017-12-23T14:10:27.678Z,24.27
2017-12-23T14:12:57.640Z,41.00
2017-12-23T14:15:26.264Z,32.97
2017-12-23T14:17:55.625Z,14.70
2017-12-23T14:20:24.673Z,18.03
2017-12-23T14:22:53.402Z,23.13
2017-12-23T14:25:22.089Z,17.43
2017-12-23T14:27:50.798Z,17.40
2017-12-23T14:30:19.462Z,25.23
2017-12-23T14:32:48.145Z,34.50
2017-12-23T14:35:16.830Z,19.33
2017-12-23T14:37:45.472Z,19.20
2017-12-23T14:40:14.154Z,19.20
2017-12-23T14:42:43.712Z,17.40
2017-12-23T14:45:12.397Z,18.17
2017-12-23T14:47:40.984Z,25.20
2017-12-23T14:50:09.812Z,17.40
2017-12-23T14:52:39.277Z,18.27
2017-12-23T14:55:07.943Z,20.57
2017-12-23T14:57:36.636Z,22.10
2017-12-23T15:00:05.328Z,22.80
2017-12-23T15:02:33.909Z,22.57
2017-12-23T15:05:02.595Z,24.43
2017-12-23T15:07:31.282Z,31.50
2017-12-23T15:09:59.868Z,29.00
2017-12-23T15:12:28.863Z,27.53
2017-12-23T15:14:57.440Z,77.07
2017-12-23T15:17:26.027Z,39.47
2017-12-23T15:19:54.770Z,32.13
2017-12-23T15:22:24.267Z,21.87
2017-12-23T15:24:53.728Z,28.73
2017-12-23T15:27:22.576Z,35.87
2017-12-23T15:29:51.297Z,37.53
2017-12-23T15:32:19.936Z,52.57
2017-12-23T15:34:50.106Z,57.30
2017-12-23T15:37:18.794Z,50.47
2017-12-23T15:39:47.373Z,42.80
2017-12-23T15:42:16.208Z,32.07
2017-12-23T15:44:45.672Z,46.13
2017-12-23T15:47:14.290Z,49.30
2017-12-23T15:49:44.470Z,42.77
2017-12-23T15:52:13.156Z,55.57
2017-12-23T15:54:41.842Z,34.60
2017-12-23T15:57:10.933Z,38.03
2017-12-23T15:59:39.630Z,37.30
2017-12-23T16:02:08.246Z,39.13
2017-12-23T16:04:37.100Z,48.70
2017-12-23T16:07:05.787Z,57.53
2017-12-23T16:09:34.374Z,74.10
2017-12-23T16:12:03.060Z,68.00
2017-12-23T16:14:31.745Z,43.20
2017-12-23T16:17:00.377Z,37.00
2017-12-23T16:19:29.872Z,32.87
2017-12-23T16:21:59.343Z,31.03
2017-12-23T16:24:27.980Z,38.60
2017-12-23T16:26:57.481Z,40.83
2017-12-23T16:29:26.212Z,41.53
2017-12-23T16:31:54.836Z,41.47
2017-12-23T16:34:24.353Z,44.30
2017-12-23T16:36:53.801Z,43.97
2017-12-23T16:39:22.597Z,60.50
2017-12-23T16:41:51.432Z,52.87
2017-12-23T16:44:20.890Z,98.00
2017-12-23T16:46:49.576Z,106.67
2017-12-23T16:49:18.311Z,58.83
2017-12-23T16:51:47.760Z,60.13
2017-12-23T16:54:16.349Z,52.30
2017-12-23T16:56:45.439Z,69.00
2017-12-23T16:59:14.125Z,68.37
2017-12-23T17:01:42.814Z,92.40
2017-12-23T17:04:11.438Z,95.30
2017-12-23T17:06:40.906Z,65.13
2017-12-23T17:09:09.592Z,98.43
2017-12-23T17:11:38.476Z,87.33
2017-12-23T17:14:07.161Z,63.73
2017-12-23T17:16:35.847Z,52.93
2017-12-23T17:19:04.642Z,49.97
2017-12-23T17:21:33.329Z,67.23
2017-12-23T17:24:02.006Z,69.60
2017-12-23T17:26:30.753Z,83.10
2017-12-23T17:29:17.869Z,68.57
2017-12-23T17:31:47.461Z,67.17
2017-12-23T17:34:16.824Z,66.07
2017-12-23T17:36:45.609Z,61.77
2017-12-23T17:39:14.311Z,81.43
2017-12-23T17:41:42.982Z,67.60
2017-12-23T17:44:11.624Z,84.97
2017-12-23T17:46:40.518Z,118.17
2017-12-23T17:49:09.247Z,60.17
2017-12-23T17:51:37.933Z,71.73
2017-12-23T17:54:06.926Z,64.93
2017-12-23T17:56:36.435Z,68.97
2017-12-23T17:59:04.977Z,65.37
2017-12-23T18:01:33.664Z,70.83
2017-12-23T18:04:02.232Z,90.10
2017-12-23T18:06:31.631Z,75.23
2017-12-23T18:09:01.131Z,80.73
2017-12-23T18:11:30.697Z,88.50
2017-12-23T18:13:59.386Z,185.43
2017-12-23T18:16:28.328Z,92.20
2017-12-23T18:18:57.724Z,102.10
2017-12-23T18:21:27.142Z,123.00
2017-12-23T18:23:56.009Z,81.77
2017-12-23T18:26:25.373Z,89.37
2017-12-23T18:28:53.959Z,117.27
2017-12-23T18:31:22.687Z,295.93
2017-12-23T18:33:52.904Z,176.30
2017-12-23T18:36:22.473Z,248.50
2017-12-23T18:38:51.258Z,378.20
2017-12-23T18:41:19.934Z,354.73
2017-12-23T18:43:48.625Z,228.27
2017-12-23T18:46:17.370Z,70.17
2017-12-23T18:48:46.038Z,259.63
2017-12-23T18:51:15.451Z,161.43
2017-12-23T18:53:45.009Z,185.47
2017-12-23T18:56:13.640Z,321.00
2017-12-23T18:58:43.104Z,307.00
2017-12-23T19:01:11.895Z,269.90
2017-12-23T19:03:40.673Z,130.00
2017-12-23T19:06:09.360Z,114.53
2017-12-23T19:08:38.155Z,83.07
2017-12-23T19:11:06.793Z,49.27
2017-12-23T19:13:35.526Z,55.70
2017-12-23T19:16:04.311Z,182.10
2017-12-23T19:18:32.998Z,232.10
2017-12-23T19:21:01.584Z,44.60
2017-12-23T19:23:30.269Z,39.17
2017-12-23T19:25:58.955Z,143.10
2017-12-23T19:28:27.740Z,121.90
2017-12-23T19:30:56.438Z,124.77
2017-12-23T19:33:25.055Z,57.80
2017-12-23T19:35:54.511Z,135.07
2017-12-23T19:38:24.011Z,41.93
2017-12-23T19:40:52.804Z,260.97
2017-12-23T19:43:21.495Z,122.97
2017-12-23T19:45:50.669Z,111.90
2017-12-23T19:48:19.378Z,79.47
2017-12-23T19:50:47.964Z,64.10
2017-12-23T19:53:16.772Z,59.70
2017-12-23T19:55:45.440Z,33.47
2017-12-23T19:58:14.107Z,33.50
2017-12-23T20:00:43.114Z,45.70
2017-12-23T20:03:11.800Z,52.23
2017-12-23T20:05:40.376Z,60.67
2017-12-23T20:08:09.272Z,148.00
2017-12-23T20:10:37.921Z,124.63
2017-12-23T20:13:06.642Z,56.80
2017-12-23T20:15:35.482Z,99.67
2017-12-23T20:18:04.837Z,79.00
2017-12-23T20:20:33.422Z,55.77
2017-12-23T20:23:02.306Z,68.17
2017-12-23T20:25:30.896Z,86.73
2017-12-23T20:27:59.580Z,96.27
2017-12-23T20:30:28.314Z,86.23
2017-12-23T20:32:57.774Z,115.10
2017-12-23T20:35:26.398Z,67.33
2017-12-23T20:37:55.867Z,90.93
2017-12-23T20:40:24.429Z,86.80
2017-12-23T20:42:53.131Z,84.27
2017-12-23T20:45:21.809Z,83.17
2017-12-23T20:47:50.354Z,75.27
2017-12-23T20:50:19.030Z,75.47
2017-12-23T20:52:48.523Z,71.70
2017-12-23T20:55:17.987Z,88.73
2017-12-23T20:57:46.673Z,46.63
2017-12-23T21:00:15.568Z,50.27
2017-12-23T21:02:44.194Z,41.83
2017-12-23T21:05:13.652Z,32.77
2017-12-23T21:07:42.447Z,22.27
2017-12-23T21:10:11.133Z,24.77
2017-12-23T21:12:39.819Z,22.37
2017-12-23T21:15:08.409Z,25.23
2017-12-23T21:17:37.191Z,24.83
2017-12-23T21:20:05.921Z,29.93
2017-12-23T21:22:35.383Z,48.57
2017-12-23T21:25:04.059Z,37.83
2017-12-23T21:27:32.746Z,35.40
2017-12-23T21:30:01.542Z,34.33
2017-12-23T21:32:30.179Z,38.23
2017-12-23T21:34:59.627Z,31.47
2017-12-23T21:37:28.731Z,67.53
2017-12-23T21:39:57.363Z,30.00
2017-12-23T21:42:25.991Z,32.57
2017-12-23T21:44:54.776Z,29.03
2017-12-23T21:47:23.413Z,36.67
2017-12-23T21:49:52.871Z,46.20
2017-12-23T21:52:21.551Z,54.23
2017-12-23T21:54:50.243Z,40.87
2017-12-23T21:57:19.066Z,43.67
2017-12-23T21:59:48.677Z,33.53
2017-12-23T22:02:18.144Z,45.20
2017-12-23T22:04:46.833Z,48.20
2017-12-23T22:07:16.536Z,42.10
2017-12-23T22:09:45.080Z,33.00
2017-12-23T22:12:13.809Z,28.23
2017-12-23T22:14:42.557Z,25.00
2017-12-23T22:17:11.281Z,19.60
2017-12-23T22:19:39.966Z,21.23
2017-12-23T22:22:08.660Z,22.10
2017-12-23T22:24:37.378Z,23.13
2017-12-23T22:27:06.793Z,26.77
2017-12-23T22:29:36.289Z,29.67
2017-12-23T22:32:05.754Z,31.43
2017-12-23T22:34:34.370Z,34.23
2017-12-23T22:37:03.015Z,23.10
2017-12-23T22:39:31.701Z,27.00
2017-12-23T22:42:00.387Z,20.53
2017-12-23T22:44:29.544Z,19.20
2017-12-23T22:46:58.275Z,16.90
2017-12-23T22:49:26.961Z,15.20
2017-12-23T22:51:55.954Z,16.40
2017-12-23T22:54:24.592Z,21.77
2017-12-23T22:56:53.325Z,26.77
2017-12-23T22:59:22.110Z,19.43
2017-12-23T23:01:50.796Z,21.70
2017-12-23T23:04:19.481Z,19.93
2017-12-23T23:06:48.069Z,22.50
2017-12-23T23:09:16.755Z,21.73
2017-12-23T23:11:45.441Z,21.70
2017-12-23T23:14:14.225Z,23.17
2017-12-23T23:16:42.911Z,26.63
2017-12-23T23:19:11.597Z,20.10
2017-12-23T23:21:41.185Z,23.23
2017-12-23T23:24:09.853Z,15.63
2017-12-23T23:26:38.577Z,17.20
2017-12-23T23:29:07.262Z,22.20
2017-12-23T23:31:35.950Z,17.80
2017-12-23T23:34:04.537Z,19.40
2017-12-23T23:36:33.221Z,16.43
2017-12-23T23:39:01.908Z,16.80
2017-12-23T23:41:31.323Z,16.23
2017-12-23T23:44:01.083Z,19.27
2017-12-23T23:46:29.769Z,18.70
2017-12-23T23:48:58.404Z,19.77
2017-12-23T23:51:27.448Z,18.33
2017-12-23T23:53:56.053Z,18.27
2017-12-23T23:56:24.807Z,18.23
2017-12-23T23:58:53.550Z,20.37
